createdAt,value
2022-11-04T00:01:46.671Z,37.28
2022-11-04T00:04:16.083Z,32.63
2022-11-04T00:06:43.500Z,28.13
2022-11-04T00:09:18.262Z,29.10
2022-11-04T00:12:04.544Z,31.77
2022-11-04T00:14:32.954Z,34.88
2022-11-04T00:17:19.017Z,32.95
2022-11-04T00:20:06.519Z,25.65
2022-11-04T00:22:53.015Z,28.70
2022-11-04T00:28:31.029Z,36.03
2022-11-04T00:31:19.942Z,32.80
2022-11-04T00:33:49.004Z,34.80
2022-11-04T00:36:16.645Z,25.83
2022-11-04T00:38:44.100Z,32.08
2022-11-04T00:41:30.413Z,32.92
2022-11-04T00:43:59.847Z,32.03
2022-11-04T00:46:29.245Z,29.08
2022-11-04T00:48:56.906Z,29.60
2022-11-04T00:51:24.461Z,33.45
2022-11-04T00:53:52.294Z,37.92
2022-11-04T00:56:19.508Z,27.90
2022-11-04T00:58:47.144Z,27.70
2022-11-04T01:01:18.858Z,32.13
2022-11-04T01:03:51.891Z,29.40
2022-11-04T01:06:21.378Z,27.67
2022-11-04T01:08:49.750Z,29.88
2022-11-04T01:11:17.214Z,28.85
2022-11-04T01:13:44.832Z,28.17
2022-11-04T01:16:13.129Z,28.95
2022-11-04T01:18:40.932Z,23.75
2022-11-04T01:21:09.531Z,30.85
2022-11-04T01:23:37.615Z,26.15
2022-11-04T01:26:06.789Z,29.00
2022-11-04T01:28:34.573Z,28.75
2022-11-04T01:31:24.915Z,29.40
2022-11-04T01:33:54.482Z,32.42
2022-11-04T01:36:22.675Z,32.47
2022-11-04T01:38:51.131Z,30.42
2022-11-04T01:41:27.224Z,31.60
2022-11-04T01:44:32.260Z,25.60
2022-11-04T01:46:59.585Z,27.85
2022-11-04T01:49:31.368Z,34.55
2022-11-04T01:52:02.633Z,28.40
2022-11-04T01:54:30.593Z,30.65
2022-11-04T01:56:59.173Z,29.88
2022-11-04T01:59:30.950Z,33.72
2022-11-04T02:01:58.635Z,25.23
2022-11-04T02:04:26.964Z,30.35
2022-11-04T02:07:03.110Z,24.17
2022-11-04T02:09:31.891Z,27.85
2022-11-04T02:12:18.167Z,23.23
2022-11-04T02:14:47.983Z,30.02
2022-11-04T02:17:32.356Z,32.78
2022-11-04T02:20:18.230Z,28.17
2022-11-04T02:23:04.018Z,22.48
2022-11-04T02:25:50.579Z,29.70
2022-11-04T02:28:26.290Z,21.90
2022-11-04T02:31:02.219Z,25.10
2022-11-04T02:33:36.729Z,27.40
2022-11-04T02:36:16.751Z,24.77
2022-11-04T02:39:08.918Z,25.52
2022-11-04T02:42:10.543Z,26.90
2022-11-04T02:44:45.823Z,33.53
2022-11-04T02:47:16.259Z,24.70
2022-11-04T02:50:08.651Z,26.38
2022-11-04T02:52:51.417Z,21.93
2022-11-04T02:55:47.520Z,23.92
2022-11-04T02:58:19.211Z,22.85
2022-11-04T03:00:46.934Z,23.23
2022-11-04T03:03:19.306Z,24.30
2022-11-04T03:05:49.039Z,28.00
2022-11-04T03:08:27.141Z,24.75
2022-11-04T03:11:01.049Z,22.05
2022-11-04T03:13:40.536Z,23.50
2022-11-04T03:16:13.904Z,22.15
2022-11-04T03:19:18.471Z,16.17
2022-11-04T03:22:05.503Z,27.67
2022-11-04T03:24:33.249Z,19.08
2022-11-04T03:27:06.126Z,21.95
2022-11-04T03:29:37.240Z,23.98
2022-11-04T03:32:50.881Z,21.15
2022-11-04T03:35:19.102Z,27.45
2022-11-04T03:37:48.051Z,21.65
2022-11-04T03:40:17.583Z,21.20
2022-11-04T03:42:53.343Z,25.20
2022-11-04T03:45:20.993Z,26.77
2022-11-04T03:47:48.121Z,25.38
2022-11-04T03:50:21.671Z,19.20
2022-11-04T03:55:16.502Z,19.38
2022-11-04T03:57:58.539Z,21.13
2022-11-04T04:00:27.404Z,17.80
2022-11-04T04:03:07.922Z,22.00
2022-11-04T04:05:50.082Z,23.63
2022-11-04T04:08:27.166Z,22.95
2022-11-04T04:11:13.515Z,19.80
2022-11-04T04:13:59.471Z,26.95
2022-11-04T04:16:31.523Z,27.83
2022-11-04T04:19:01.824Z,20.48
2022-11-04T04:21:32.538Z,22.48
2022-11-04T04:24:21.013Z,22.17
2022-11-04T04:27:07.886Z,20.95
2022-11-04T04:29:35.998Z,25.98
2022-11-04T04:32:04.082Z,17.67
2022-11-04T04:34:33.153Z,21.92
2022-11-04T04:37:07.135Z,23.20
2022-11-04T04:40:18.481Z,23.23
2022-11-04T04:43:11.424Z,22.17
2022-11-04T04:45:41.584Z,22.92
2022-11-04T04:48:11.760Z,17.40
2022-11-04T04:50:45.574Z,24.75
2022-11-04T04:53:13.280Z,20.67
2022-11-04T04:55:41.961Z,20.00
2022-11-04T04:58:10.431Z,22.00
2022-11-04T05:00:37.837Z,24.00
2022-11-04T05:03:05.694Z,24.27
2022-11-04T05:05:33.080Z,18.33
2022-11-04T05:08:08.468Z,22.55
2022-11-04T05:10:36.127Z,22.48
2022-11-04T05:13:22.327Z,24.50
2022-11-04T05:15:49.567Z,24.10
2022-11-04T05:18:17.626Z,23.20
2022-11-04T05:20:45.151Z,21.48
2022-11-04T05:23:13.733Z,21.45
2022-11-04T05:25:42.045Z,18.55
2022-11-04T05:28:10.612Z,18.60
2022-11-04T05:30:38.270Z,18.67
2022-11-04T05:33:06.489Z,19.75
2022-11-04T05:35:35.096Z,14.90
2022-11-04T05:38:03.190Z,23.48
2022-11-04T05:40:30.402Z,25.38
2022-11-04T05:42:59.905Z,20.10
2022-11-04T05:45:28.363Z,22.45
2022-11-04T05:48:04.412Z,20.67
2022-11-04T05:50:33.127Z,20.83
2022-11-04T05:53:01.451Z,21.40
2022-11-04T05:55:28.945Z,20.45
2022-11-04T05:57:58.087Z,25.55
2022-11-04T06:00:26.838Z,19.15
2022-11-04T06:02:57.460Z,21.08
2022-11-04T06:05:25.674Z,18.40
2022-11-04T06:07:53.469Z,21.23
2022-11-04T06:10:20.750Z,23.55
2022-11-04T06:12:48.323Z,25.17
2022-11-04T06:15:15.660Z,16.58
2022-11-04T06:17:43.362Z,22.88
2022-11-04T06:20:11.055Z,21.90
2022-11-04T06:22:38.632Z,21.63
2022-11-04T06:25:06.036Z,20.42
2022-11-04T06:27:33.498Z,20.92
2022-11-04T06:30:00.751Z,14.55
2022-11-04T06:32:28.264Z,22.10
2022-11-04T06:34:55.732Z,26.60
2022-11-04T06:37:23.392Z,19.10
2022-11-04T06:39:50.739Z,16.80
2022-11-04T06:42:18.542Z,19.25
2022-11-04T06:44:45.768Z,19.17
2022-11-04T06:47:13.445Z,18.88
2022-11-04T06:49:40.741Z,17.15
2022-11-04T06:52:08.814Z,14.68
2022-11-04T06:54:36.428Z,16.27
2022-11-04T06:57:04.046Z,19.30
2022-11-04T06:59:31.334Z,20.90
2022-11-04T07:01:59.342Z,18.90
2022-11-04T07:04:27.035Z,20.48
2022-11-04T07:06:54.691Z,20.77
2022-11-04T07:09:22.362Z,22.38
2022-11-04T07:11:50.187Z,21.92
2022-11-04T07:14:17.590Z,18.90
2022-11-04T07:16:45.271Z,26.02
2022-11-04T07:19:12.582Z,16.45
2022-11-04T07:21:40.473Z,23.88
2022-11-04T07:24:07.788Z,14.48
2022-11-04T07:26:35.503Z,26.88
2022-11-04T07:29:02.864Z,23.60
2022-11-04T07:31:30.545Z,18.50
2022-11-04T07:33:57.987Z,23.60
2022-11-04T07:36:25.710Z,26.33
2022-11-04T07:38:53.262Z,20.67
2022-11-04T07:41:21.083Z,28.63
2022-11-04T07:43:52.602Z,29.83
2022-11-04T07:46:20.882Z,24.50
2022-11-04T07:48:48.301Z,27.25
2022-11-04T07:51:18.906Z,21.60
2022-11-04T07:53:46.835Z,17.50
2022-11-04T07:56:14.996Z,20.10
2022-11-04T07:58:42.777Z,29.02
2022-11-04T08:01:16.529Z,25.65
2022-11-04T08:03:44.438Z,22.67
2022-11-04T08:06:14.382Z,21.65
2022-11-04T08:08:43.687Z,23.50
2022-11-04T08:11:17.314Z,20.63
2022-11-04T08:13:46.613Z,19.75
2022-11-04T08:16:16.543Z,17.13
2022-11-04T08:18:44.547Z,23.15
2022-11-04T08:21:13.193Z,21.30
2022-11-04T08:23:40.670Z,25.60
2022-11-04T08:26:12.184Z,19.60
2022-11-04T08:28:40.021Z,23.30
2022-11-04T08:31:15.471Z,20.00
2022-11-04T08:33:43.275Z,21.98
2022-11-04T08:36:17.932Z,20.27
2022-11-04T08:38:45.718Z,20.45
2022-11-04T08:41:16.056Z,19.13
2022-11-04T08:43:43.584Z,23.38
2022-11-04T08:46:11.740Z,26.00
2022-11-04T08:48:39.639Z,21.17
2022-11-04T08:51:17.136Z,23.42
2022-11-04T08:53:44.699Z,20.15
2022-11-04T08:56:25.635Z,22.27
2022-11-04T08:58:53.765Z,21.85
2022-11-04T09:01:22.433Z,23.10
2022-11-04T09:03:50.493Z,21.73
2022-11-04T09:06:30.507Z,28.88
2022-11-04T09:09:03.743Z,23.88
2022-11-04T09:11:38.067Z,26.20
2022-11-04T09:14:06.934Z,16.15
2022-11-04T09:16:36.674Z,16.08
2022-11-04T09:19:04.319Z,24.27
2022-11-04T09:21:32.082Z,21.27
2022-11-04T09:23:59.443Z,18.20
2022-11-04T09:26:27.255Z,24.13
2022-11-04T09:28:55.679Z,20.73
2022-11-04T09:31:24.355Z,21.40
2022-11-04T09:33:51.844Z,20.00
2022-11-04T09:36:19.703Z,26.00
2022-11-04T09:38:47.001Z,22.58
2022-11-04T09:41:46.271Z,19.83
2022-11-04T09:44:24.203Z,22.05
2022-11-04T09:46:54.209Z,23.92
2022-11-04T09:49:22.007Z,29.10
2022-11-04T09:51:54.962Z,21.35
2022-11-04T09:55:09.306Z,22.60
2022-11-04T09:57:37.010Z,20.88
2022-11-04T10:00:06.206Z,21.05
2022-11-04T10:03:01.546Z,26.48
2022-11-04T10:05:47.624Z,21.58
2022-11-04T10:08:52.990Z,20.13
2022-11-04T10:11:23.312Z,27.42
2022-11-04T10:14:19.272Z,23.33
2022-11-04T10:16:52.367Z,21.42
2022-11-04T10:22:21.771Z,23.05
2022-11-04T10:25:15.308Z,18.40
2022-11-04T10:27:45.447Z,18.77
2022-11-04T10:30:25.651Z,20.27
2022-11-04T10:33:14.212Z,18.08
2022-11-04T10:35:50.976Z,20.33
2022-11-04T10:38:21.816Z,24.17
2022-11-04T10:40:52.957Z,22.48
2022-11-04T10:43:35.805Z,20.80
2022-11-04T10:46:09.733Z,23.05
2022-11-04T10:48:55.756Z,26.45
2022-11-04T10:51:24.789Z,21.23
2022-11-04T10:53:58.742Z,21.55
2022-11-04T10:56:40.803Z,24.17
2022-11-04T10:59:36.468Z,30.02
2022-11-04T11:02:04.661Z,20.75
2022-11-04T11:04:38.450Z,23.13
2022-11-04T11:07:09.359Z,20.70
2022-11-04T11:09:53.553Z,16.50
2022-11-04T11:12:49.996Z,17.95
2022-11-04T11:15:30.361Z,20.58
2022-11-04T11:18:08.326Z,20.42
2022-11-04T11:20:38.150Z,18.58
2022-11-04T11:23:10.341Z,17.92
2022-11-04T11:25:42.592Z,18.80
2022-11-04T11:28:12.036Z,19.08
2022-11-04T11:31:04.691Z,19.55
2022-11-04T11:33:34.938Z,18.73
2022-11-04T11:36:23.905Z,17.65
2022-11-04T11:39:05.644Z,23.85
2022-11-04T11:42:02.233Z,25.95
2022-11-04T11:44:34.152Z,17.00
2022-11-04T11:47:23.681Z,20.63
2022-11-04T11:50:13.315Z,17.92
2022-11-04T11:52:48.203Z,16.23
2022-11-04T11:55:29.257Z,25.67
2022-11-04T12:01:27.014Z,17.10
2022-11-04T12:10:04.789Z,15.20
2022-11-04T12:12:47.663Z,19.90
2022-11-04T12:15:29.583Z,18.58
2022-11-04T12:18:30.526Z,17.58
2022-11-04T12:21:16.153Z,12.25
2022-11-04T12:23:49.751Z,14.80
2022-11-04T12:26:51.412Z,21.08
2022-11-04T12:29:27.813Z,18.85
2022-11-04T12:32:00.868Z,19.42
2022-11-04T12:34:45.501Z,17.77
2022-11-04T12:37:58.238Z,19.50
2022-11-04T12:40:33.597Z,16.08
2022-11-04T12:43:19.540Z,17.33
2022-11-04T12:45:53.336Z,17.02
2022-11-04T12:48:35.715Z,13.13
2022-11-04T12:51:06.980Z,19.70
2022-11-04T12:53:34.242Z,20.40
2022-11-04T12:56:07.515Z,14.20
2022-11-04T12:59:02.092Z,18.95
2022-11-04T13:01:39.141Z,17.52
2022-11-04T13:04:20.787Z,21.83
2022-11-04T13:06:53.411Z,22.25
2022-11-04T13:11:57.138Z,12.10
2022-11-04T13:14:29.824Z,18.05
2022-11-04T13:17:03.953Z,15.68
2022-11-04T13:19:51.995Z,15.18
2022-11-04T13:22:23.501Z,18.02
2022-11-04T13:25:03.950Z,17.63
2022-11-04T13:27:37.993Z,14.65
2022-11-04T13:30:15.475Z,14.30
2022-11-04T13:33:02.871Z,14.00
2022-11-04T13:35:52.314Z,16.40
2022-11-04T13:38:28.511Z,14.68
2022-11-04T13:41:21.844Z,15.93
2022-11-04T13:43:53.155Z,16.75
2022-11-04T13:46:28.518Z,15.23
2022-11-04T13:49:32.847Z,18.00
2022-11-04T13:52:09.356Z,18.02
2022-11-04T13:54:53.134Z,16.92
2022-11-04T13:57:23.011Z,18.75
2022-11-04T14:00:09.492Z,16.98
2022-11-04T14:02:38.958Z,17.67
2022-11-04T14:05:28.506Z,14.73
2022-11-04T14:08:02.114Z,15.00
2022-11-04T14:10:48.473Z,16.77
2022-11-04T14:13:42.744Z,19.63
2022-11-04T14:16:25.545Z,18.30
2022-11-04T14:18:54.267Z,17.83
2022-11-04T14:21:26.269Z,14.00
2022-11-04T14:23:56.588Z,21.13
2022-11-04T14:26:45.415Z,19.40
2022-11-04T14:29:20.555Z,18.40
2022-11-04T14:31:51.085Z,19.38
2022-11-04T14:34:34.628Z,21.75
2022-11-04T14:37:19.606Z,19.27
2022-11-04T14:39:54.511Z,17.05
2022-11-04T14:42:44.640Z,17.02
2022-11-04T14:45:18.881Z,18.38
2022-11-04T14:47:49.355Z,15.75
2022-11-04T14:50:24.438Z,15.90
2022-11-04T14:52:59.559Z,17.75
2022-11-04T14:55:30.396Z,18.83
2022-11-04T14:58:28.315Z,14.80
2022-11-04T15:01:01.621Z,18.88
2022-11-04T15:06:40.773Z,20.30
2022-11-04T15:09:47.430Z,18.63
2022-11-04T15:12:37.003Z,26.58
2022-11-04T15:15:27.394Z,18.10
2022-11-04T15:17:59.341Z,23.48
2022-11-04T15:20:30.741Z,22.67
2022-11-04T15:23:00.898Z,22.67
2022-11-04T15:25:28.497Z,22.02
2022-11-04T15:27:57.016Z,22.67
2022-11-04T15:30:31.290Z,20.92
2022-11-04T15:33:02.545Z,22.92
2022-11-04T15:35:32.643Z,21.95
2022-11-04T15:38:01.677Z,17.48
2022-11-04T15:40:30.028Z,19.63
2022-11-04T15:43:00.282Z,18.75
2022-11-04T15:45:30.167Z,21.88
2022-11-04T15:48:38.079Z,22.02
2022-11-04T15:51:11.734Z,20.23
2022-11-04T15:56:20.288Z,17.80
2022-11-04T16:01:16.609Z,22.92
2022-11-04T16:04:10.967Z,21.00
2022-11-04T16:06:42.568Z,19.35
2022-11-04T16:09:11.084Z,20.05
2022-11-04T16:11:38.720Z,22.85
2022-11-04T16:14:26.648Z,19.70
2022-11-04T16:16:54.218Z,23.20
2022-11-04T16:19:24.955Z,23.55
2022-11-04T16:22:04.853Z,20.65
2022-11-04T16:24:34.659Z,17.85
2022-11-04T16:27:01.983Z,23.58
2022-11-04T16:29:37.493Z,22.75
2022-11-04T16:32:32.267Z,20.10
2022-11-04T16:35:01.555Z,17.63
2022-11-04T16:37:30.273Z,19.77
2022-11-04T16:39:58.007Z,21.85
2022-11-04T16:42:25.295Z,25.05
2022-11-04T16:44:57.156Z,26.70
2022-11-04T16:47:26.018Z,24.48
2022-11-04T16:49:53.784Z,21.75
2022-11-04T16:52:25.663Z,19.45
2022-11-04T16:54:56.449Z,21.87
2022-11-04T16:57:25.828Z,33.10
2022-11-04T16:59:53.552Z,28.05
2022-11-04T17:02:31.092Z,28.42
2022-11-04T17:04:59.206Z,23.30
2022-11-04T17:07:47.236Z,24.88
2022-11-04T17:10:19.725Z,29.38
2022-11-04T17:12:47.362Z,25.40
2022-11-04T17:15:16.332Z,21.95
2022-11-04T17:17:43.743Z,28.27
2022-11-04T17:20:17.958Z,34.47
2022-11-04T17:22:47.003Z,24.25
2022-11-04T17:25:26.043Z,23.23
2022-11-04T17:27:54.341Z,22.95
2022-11-04T17:30:23.616Z,27.58
2022-11-04T17:32:51.501Z,24.10
2022-11-04T17:35:19.036Z,28.55
2022-11-04T17:37:46.903Z,22.17
2022-11-04T17:40:17.598Z,27.42
2022-11-04T17:43:10.402Z,24.38
2022-11-04T17:45:40.899Z,31.48
2022-11-04T17:48:10.332Z,30.27
2022-11-04T17:50:39.501Z,25.08
2022-11-04T17:53:08.136Z,29.60
2022-11-04T17:55:40.839Z,27.90
2022-11-04T17:58:08.864Z,30.80
2022-11-04T18:00:36.761Z,20.30
2022-11-04T18:03:04.382Z,28.95
2022-11-04T18:05:32.256Z,30.63
2022-11-04T18:08:01.872Z,22.75
2022-11-04T18:10:30.125Z,26.15
2022-11-04T18:12:57.615Z,27.30
2022-11-04T18:15:25.293Z,26.45
2022-11-04T18:17:53.304Z,28.35
2022-11-04T18:20:21.272Z,29.75
2022-11-04T18:22:48.926Z,29.85
2022-11-04T18:25:16.745Z,26.05
2022-11-04T18:27:44.926Z,29.10
2022-11-04T18:30:13.451Z,27.90
2022-11-04T18:32:41.195Z,28.20
2022-11-04T18:35:09.040Z,31.25
2022-11-04T18:37:36.464Z,32.30
2022-11-04T18:40:04.628Z,31.77
2022-11-04T18:42:32.411Z,28.05
2022-11-04T18:45:00.292Z,30.92
2022-11-04T18:47:27.666Z,28.23
2022-11-04T18:49:56.260Z,32.65
2022-11-04T18:52:25.095Z,29.23
2022-11-04T18:54:53.846Z,31.27
2022-11-04T18:57:21.507Z,29.05
2022-11-04T18:59:49.586Z,31.13
2022-11-04T19:02:21.358Z,32.00
2022-11-04T19:04:50.503Z,24.45
2022-11-04T19:07:18.022Z,28.23
2022-11-04T19:09:47.417Z,27.00
2022-11-04T19:12:35.663Z,25.08
2022-11-04T19:15:04.712Z,27.33
2022-11-04T19:17:32.207Z,27.85
2022-11-04T19:20:00.239Z,30.10
2022-11-04T19:22:27.939Z,52.80
2022-11-04T19:24:56.068Z,97.20
2022-11-04T19:27:25.267Z,82.25
2022-11-04T19:29:53.503Z,138.45
2022-11-04T19:32:21.487Z,128.80
2022-11-04T19:34:50.226Z,175.18
2022-11-04T19:37:18.172Z,38.00
2022-11-04T19:39:46.040Z,51.20
2022-11-04T19:42:31.916Z,34.60
2022-11-04T19:45:00.002Z,34.33
2022-11-04T19:47:27.307Z,26.95
2022-11-04T19:49:55.872Z,24.88
2022-11-04T19:52:23.357Z,28.67
2022-11-04T19:54:51.436Z,28.85
2022-11-04T19:57:18.987Z,29.80
2022-11-04T19:59:50.264Z,28.63
2022-11-04T20:02:17.982Z,32.97
2022-11-04T20:04:48.003Z,27.58
2022-11-04T20:07:15.441Z,32.35
2022-11-04T20:09:43.180Z,26.67
2022-11-04T20:12:29.280Z,34.70
2022-11-04T20:14:57.939Z,40.15
2022-11-04T20:17:25.522Z,30.55
2022-11-04T20:19:53.407Z,29.30
2022-11-04T20:22:20.910Z,29.13
2022-11-04T20:24:48.700Z,27.90
2022-11-04T20:27:16.581Z,36.33
2022-11-04T20:29:44.229Z,37.90
2022-11-04T20:32:11.561Z,29.90
2022-11-04T20:34:40.169Z,31.55
2022-11-04T20:37:08.137Z,28.00
2022-11-04T20:39:35.953Z,28.83
2022-11-04T20:42:03.701Z,26.70
2022-11-04T20:44:31.871Z,23.75
2022-11-04T20:46:59.906Z,29.25
2022-11-04T20:49:28.939Z,24.38
2022-11-04T20:51:56.414Z,23.52
2022-11-04T20:54:24.240Z,29.58
2022-11-04T20:56:51.874Z,38.42
2022-11-04T20:59:19.914Z,34.08
2022-11-04T21:01:48.778Z,33.67
2022-11-04T21:04:19.354Z,42.10
2022-11-04T21:06:50.911Z,29.40
2022-11-04T21:09:20.605Z,30.50
2022-11-04T21:11:48.041Z,30.77
2022-11-04T21:14:16.864Z,32.75
2022-11-04T21:16:44.417Z,26.00
2022-11-04T21:19:12.255Z,22.98
2022-11-04T21:21:42.361Z,25.13
2022-11-04T21:24:12.663Z,25.70
2022-11-04T21:26:40.120Z,23.60
2022-11-04T21:29:11.244Z,28.60
2022-11-04T21:31:39.467Z,26.42
2022-11-04T21:34:07.701Z,26.20
2022-11-04T21:36:35.020Z,28.38
2022-11-04T21:39:02.814Z,28.73
2022-11-04T21:41:33.762Z,27.42
2022-11-04T21:44:03.478Z,22.80
2022-11-04T21:46:32.678Z,29.35
2022-11-04T21:49:01.330Z,28.85
2022-11-04T21:51:31.115Z,31.65
2022-11-04T21:53:59.611Z,30.02
2022-11-04T21:56:29.016Z,26.45
2022-11-04T21:58:56.913Z,27.63
2022-11-04T22:01:26.932Z,29.05
2022-11-04T22:04:00.215Z,24.98
2022-11-04T22:06:34.600Z,30.25
2022-11-04T22:09:09.580Z,28.13
2022-11-04T22:11:39.718Z,26.73
2022-11-04T22:14:08.855Z,26.92
2022-11-04T22:16:39.053Z,29.35
2022-11-04T22:19:10.441Z,34.85
2022-11-04T22:21:43.094Z,37.78
2022-11-04T22:24:12.611Z,34.03
2022-11-04T22:26:40.476Z,28.15
2022-11-04T22:29:09.320Z,30.67
2022-11-04T22:31:39.582Z,26.58
2022-11-04T22:34:07.624Z,24.67
2022-11-04T22:36:35.017Z,25.88
2022-11-04T22:39:03.764Z,26.85
2022-11-04T22:41:32.936Z,24.70
2022-11-04T22:44:00.707Z,22.27
2022-11-04T22:46:30.090Z,28.13
2022-11-04T22:48:59.838Z,28.20
2022-11-04T22:51:27.922Z,25.35
2022-11-04T22:53:59.090Z,30.00
2022-11-04T22:56:29.182Z,22.50
2022-11-04T22:58:57.045Z,26.55
2022-11-04T23:01:26.238Z,28.38
2022-11-04T23:03:54.478Z,26.60
2022-11-04T23:06:22.479Z,23.65
2022-11-04T23:08:52.130Z,25.85
2022-11-04T23:11:44.328Z,27.00
2022-11-04T23:14:35.451Z,22.83
2022-11-04T23:17:24.564Z,29.23
2022-11-04T23:19:52.138Z,26.63
2022-11-04T23:22:38.076Z,23.55
2022-11-04T23:25:06.521Z,26.52
2022-11-04T23:27:53.580Z,24.17
2022-11-04T23:30:21.701Z,26.15
2022-11-04T23:32:52.910Z,24.15
2022-11-04T23:36:04.182Z,25.88
2022-11-04T23:38:32.316Z,25.23
2022-11-04T23:41:21.538Z,23.85
2022-11-04T23:43:49.190Z,24.58
2022-11-04T23:46:42.316Z,24.83
2022-11-04T23:49:13.430Z,29.95
2022-11-04T23:52:00.110Z,26.15
2022-11-04T23:54:46.141Z,33.15
2022-11-04T23:57:34.873Z,29.10
